sensor_id;sensor_type;location;lat;lon;timestamp;P1;durP1;ratioP1;P2;durP2;ratioP2
3211;SDS011;1618;47.056;15.472;2024-03-22T00:02:25;27.10;;;25.20;;
3211;SDS011;1618;47.056;15.472;2024-03-22T00:04:56;26.80;;;24.90;;
3211;SDS011;1618;47.056;15.472;2024-03-22T00:07:22;26.90;;;25.00;;
3211;SDS011;1618;47.056;15.472;2024-03-22T00:09:51;27.03;;;25.13;;
3211;SDS011;1618;47.056;15.472;2024-03-22T00:12:18;27.40;;;25.50;;
3211;SDS011;1618;47.056;15.472;2024-03-22T00:14:47;27.43;;;25.53;;
3211;SDS011;1618;47.056;15.472;2024-03-22T00:17:14;26.90;;;25.10;;
3211;SDS011;1618;47.056;15.472;2024-03-22T00:19:42;27.50;;;25.60;;
3211;SDS011;1618;47.056;15.472;2024-03-22T00:22:10;27.37;;;25.47;;
3211;SDS011;1618;47.056;15.472;2024-03-22T00:24:39;27.60;;;25.70;;
3211;SDS011;1618;47.056;15.472;2024-03-22T00:27:05;27.20;;;25.40;;
3211;SDS011;1618;47.056;15.472;2024-03-22T00:29:32;27.43;;;25.63;;
3211;SDS011;1618;47.056;15.472;2024-03-22T00:32:00;27.47;;;25.67;;
3211;SDS011;1618;47.056;15.472;2024-03-22T00:34:29;27.50;;;25.70;;
3211;SDS011;1618;47.056;15.472;2024-03-22T00:36:56;28.13;;;26.23;;
3211;SDS011;1618;47.056;15.472;2024-03-22T00:39:25;28.30;;;26.40;;
3211;SDS011;1618;47.056;15.472;2024-03-22T00:41:51;27.57;;;25.77;;
3211;SDS011;1618;47.056;15.472;2024-03-22T00:44:19;27.80;;;26.00;;
3211;SDS011;1618;47.056;15.472;2024-03-22T00:46:45;28.00;;;26.20;;
3211;SDS011;1618;47.056;15.472;2024-03-22T00:49:13;29.17;;;27.37;;
3211;SDS011;1618;47.056;15.472;2024-03-22T00:51:42;29.00;;;27.30;;
3211;SDS011;1618;47.056;15.472;2024-03-22T00:54:11;28.60;;;26.90;;
3211;SDS011;1618;47.056;15.472;2024-03-22T00:56:40;30.33;;;28.53;;
3211;SDS011;1618;47.056;15.472;2024-03-22T00:59:09;27.60;;;25.80;;
3211;SDS011;1618;47.056;15.472;2024-03-22T01:01:39;27.70;;;25.90;;
3211;SDS011;1618;47.056;15.472;2024-03-22T01:04:08;27.50;;;25.70;;
3211;SDS011;1618;47.056;15.472;2024-03-22T01:06:35;27.70;;;25.90;;
3211;SDS011;1618;47.056;15.472;2024-03-22T01:09:04;27.80;;;26.00;;
3211;SDS011;1618;47.056;15.472;2024-03-22T01:11:31;27.70;;;25.90;;
3211;SDS011;1618;47.056;15.472;2024-03-22T01:14:02;27.17;;;25.37;;
3211;SDS011;1618;47.056;15.472;2024-03-22T01:16:29;27.60;;;25.90;;
3211;SDS011;1618;47.056;15.472;2024-03-22T01:18:56;27.00;;;25.30;;
3211;SDS011;1618;47.056;15.472;2024-03-22T01:21:23;26.90;;;25.20;;
3211;SDS011;1618;47.056;15.472;2024-03-22T01:23:52;26.87;;;25.17;;
3211;SDS011;1618;47.056;15.472;2024-03-22T01:26:19;26.80;;;25.10;;
3211;SDS011;1618;47.056;15.472;2024-03-22T01:28:48;26.90;;;25.20;;
3211;SDS011;1618;47.056;15.472;2024-03-22T01:31:17;26.87;;;25.17;;
3211;SDS011;1618;47.056;15.472;2024-03-22T01:33:46;27.20;;;25.50;;
3211;SDS011;1618;47.056;15.472;2024-03-22T01:36:13;28.00;;;26.20;;
3211;SDS011;1618;47.056;15.472;2024-03-22T01:38:42;27.40;;;25.70;;
3211;SDS011;1618;47.056;15.472;2024-03-22T01:41:09;28.00;;;26.20;;
3211;SDS011;1618;47.056;15.472;2024-03-22T01:43:36;28.10;;;26.20;;
3211;SDS011;1618;47.056;15.472;2024-03-22T01:46:03;28.10;;;26.30;;
3211;SDS011;1618;47.056;15.472;2024-03-22T01:48:34;27.60;;;25.80;;
3211;SDS011;1618;47.056;15.472;2024-03-22T01:51:00;27.40;;;25.60;;
3211;SDS011;1618;47.056;15.472;2024-03-22T01:53:29;27.33;;;25.60;;
3211;SDS011;1618;47.056;15.472;2024-03-22T01:55:56;27.53;;;25.73;;
3211;SDS011;1618;47.056;15.472;2024-03-22T01:58:24;27.50;;;25.70;;
3211;SDS011;1618;47.056;15.472;2024-03-22T02:00:50;27.73;;;25.93;;
3211;SDS011;1618;47.056;15.472;2024-03-22T02:03:19;28.43;;;26.53;;
3211;SDS011;1618;47.056;15.472;2024-03-22T02:05:48;27.50;;;25.70;;
3211;SDS011;1618;47.056;15.472;2024-03-22T02:08:15;27.73;;;25.83;;
3211;SDS011;1618;47.056;15.472;2024-03-22T02:10:42;30.53;;;28.73;;
3211;SDS011;1618;47.056;15.472;2024-03-22T02:13:11;30.80;;;29.00;;
3211;SDS011;1618;47.056;15.472;2024-03-22T02:15:39;31.00;;;29.10;;
3211;SDS011;1618;47.056;15.472;2024-03-22T02:18:07;30.20;;;28.40;;
3211;SDS011;1618;47.056;15.472;2024-03-22T02:20:36;27.90;;;26.00;;
3211;SDS011;1618;47.056;15.472;2024-03-22T02:23:04;27.40;;;25.60;;
3211;SDS011;1618;47.056;15.472;2024-03-22T02:25:33;26.73;;;24.93;;
3211;SDS011;1618;47.056;15.472;2024-03-22T02:27:59;27.40;;;25.50;;
3211;SDS011;1618;47.056;15.472;2024-03-22T02:30:28;27.37;;;25.47;;
3211;SDS011;1618;47.056;15.472;2024-03-22T02:32:59;27.17;;;25.27;;
3211;SDS011;1618;47.056;15.472;2024-03-22T02:35:26;27.10;;;25.20;;
3211;SDS011;1618;47.056;15.472;2024-03-22T02:37:53;26.80;;;25.00;;
3211;SDS011;1618;47.056;15.472;2024-03-22T02:40:24;26.80;;;25.00;;
3211;SDS011;1618;47.056;15.472;2024-03-22T02:42:53;27.10;;;25.20;;
3211;SDS011;1618;47.056;15.472;2024-03-22T02:45:21;27.80;;;25.80;;
3211;SDS011;1618;47.056;15.472;2024-03-22T02:47:48;27.43;;;25.43;;
3211;SDS011;1618;47.056;15.472;2024-03-22T02:50:20;27.50;;;25.50;;
3211;SDS011;1618;47.056;15.472;2024-03-22T02:52:47;27.93;;;25.83;;
3211;SDS011;1618;47.056;15.472;2024-03-22T02:55:15;28.50;;;26.40;;
3211;SDS011;1618;47.056;15.472;2024-03-22T02:57:41;28.20;;;26.10;;
3211;SDS011;1618;47.056;15.472;2024-03-22T03:00:10;28.77;;;26.57;;
3211;SDS011;1618;47.056;15.472;2024-03-22T03:02:37;28.70;;;26.50;;
3211;SDS011;1618;47.056;15.472;2024-03-22T03:05:05;29.03;;;26.83;;
3211;SDS011;1618;47.056;15.472;2024-03-22T03:07:32;28.97;;;26.77;;
3211;SDS011;1618;47.056;15.472;2024-03-22T03:10:00;28.90;;;26.60;;
3211;SDS011;1618;47.056;15.472;2024-03-22T03:12:27;28.80;;;26.50;;
3211;SDS011;1618;47.056;15.472;2024-03-22T03:14:54;28.67;;;26.37;;
3211;SDS011;1618;47.056;15.472;2024-03-22T03:17:23;28.37;;;26.07;;
3211;SDS011;1618;47.056;15.472;2024-03-22T03:19:50;28.60;;;26.30;;
3211;SDS011;1618;47.056;15.472;2024-03-22T03:22:17;28.40;;;26.10;;
3211;SDS011;1618;47.056;15.472;2024-03-22T03:24:45;28.10;;;25.80;;
3211;SDS011;1618;47.056;15.472;2024-03-22T03:27:12;28.60;;;26.20;;
3211;SDS011;1618;47.056;15.472;2024-03-22T03:29:39;28.40;;;26.10;;
3211;SDS011;1618;47.056;15.472;2024-03-22T03:32:08;28.67;;;26.37;;
3211;SDS011;1618;47.056;15.472;2024-03-22T03:34:38;29.53;;;27.33;;
3211;SDS011;1618;47.056;15.472;2024-03-22T03:37:07;29.60;;;27.40;;
3211;SDS011;1618;47.056;15.472;2024-03-22T03:39:36;29.30;;;27.10;;
3211;SDS011;1618;47.056;15.472;2024-03-22T03:42:03;29.43;;;27.23;;
3211;SDS011;1618;47.056;15.472;2024-03-22T03:44:31;28.50;;;26.10;;
3211;SDS011;1618;47.056;15.472;2024-03-22T03:46:58;28.70;;;26.30;;
3211;SDS011;1618;47.056;15.472;2024-03-22T03:49:26;28.30;;;25.90;;
3211;SDS011;1618;47.056;15.472;2024-03-22T03:51:54;28.70;;;26.30;;
3211;SDS011;1618;47.056;15.472;2024-03-22T03:54:22;28.60;;;26.20;;
3211;SDS011;1618;47.056;15.472;2024-03-22T03:56:50;29.10;;;26.70;;
3211;SDS011;1618;47.056;15.472;2024-03-22T03:59:19;28.80;;;26.40;;
3211;SDS011;1618;47.056;15.472;2024-03-22T04:01:45;28.60;;;26.30;;
3211;SDS011;1618;47.056;15.472;2024-03-22T04:04:13;29.20;;;26.90;;
3211;SDS011;1618;47.056;15.472;2024-03-22T04:06:41;28.90;;;26.50;;
3211;SDS011;1618;47.056;15.472;2024-03-22T04:09:09;29.07;;;26.67;;
3211;SDS011;1618;47.056;15.472;2024-03-22T04:11:37;28.57;;;26.27;;
3211;SDS011;1618;47.056;15.472;2024-03-22T04:14:04;28.20;;;25.90;;
3211;SDS011;1618;47.056;15.472;2024-03-22T04:16:33;28.80;;;26.40;;
3211;SDS011;1618;47.056;15.472;2024-03-22T04:19:01;28.40;;;26.10;;
3211;SDS011;1618;47.056;15.472;2024-03-22T04:21:28;28.10;;;25.80;;
3211;SDS011;1618;47.056;15.472;2024-03-22T04:23:56;28.40;;;26.10;;
3211;SDS011;1618;47.056;15.472;2024-03-22T04:26:29;28.30;;;26.00;;
3211;SDS011;1618;47.056;15.472;2024-03-22T04:28:58;27.83;;;25.53;;
3211;SDS011;1618;47.056;15.472;2024-03-22T04:31:26;27.80;;;25.50;;
3211;SDS011;1618;47.056;15.472;2024-03-22T04:33:53;27.00;;;24.80;;
3211;SDS011;1618;47.056;15.472;2024-03-22T04:36:20;27.33;;;25.13;;
3211;SDS011;1618;47.056;15.472;2024-03-22T04:38:47;27.13;;;24.83;;
3211;SDS011;1618;47.056;15.472;2024-03-22T04:41:16;28.40;;;26.40;;
3211;SDS011;1618;47.056;15.472;2024-03-22T04:43:45;32.57;;;30.37;;
3211;SDS011;1618;47.056;15.472;2024-03-22T04:46:13;32.40;;;30.10;;
3211;SDS011;1618;47.056;15.472;2024-03-22T04:48:40;32.20;;;29.90;;
3211;SDS011;1618;47.056;15.472;2024-03-22T04:51:06;31.50;;;29.20;;
3211;SDS011;1618;47.056;15.472;2024-03-22T04:53:40;32.00;;;29.70;;
3211;SDS011;1618;47.056;15.472;2024-03-22T04:56:06;31.63;;;29.33;;
3211;SDS011;1618;47.056;15.472;2024-03-22T04:58:34;34.27;;;31.97;;
3211;SDS011;1618;47.056;15.472;2024-03-22T05:01:02;33.30;;;31.10;;
3211;SDS011;1618;47.056;15.472;2024-03-22T05:03:30;33.17;;;30.97;;
3211;SDS011;1618;47.056;15.472;2024-03-22T05:05:57;32.63;;;30.43;;
3211;SDS011;1618;47.056;15.472;2024-03-22T05:08:29;31.87;;;29.67;;
3211;SDS011;1618;47.056;15.472;2024-03-22T05:11:00;27.73;;;25.83;;
3211;SDS011;1618;47.056;15.472;2024-03-22T05:13:29;30.60;;;28.50;;
3211;SDS011;1618;47.056;15.472;2024-03-22T05:15:57;30.87;;;28.77;;
3211;SDS011;1618;47.056;15.472;2024-03-22T05:18:26;30.97;;;29.07;;
3211;SDS011;1618;47.056;15.472;2024-03-22T05:20:53;31.13;;;29.33;;
3211;SDS011;1618;47.056;15.472;2024-03-22T05:23:20;29.90;;;28.10;;
3211;SDS011;1618;47.056;15.472;2024-03-22T05:25:49;29.50;;;27.70;;
3211;SDS011;1618;47.056;15.472;2024-03-22T05:28:17;29.77;;;27.87;;
3211;SDS011;1618;47.056;15.472;2024-03-22T05:30:43;31.20;;;29.20;;
3211;SDS011;1618;47.056;15.472;2024-03-22T05:33:12;31.10;;;29.10;;
3211;SDS011;1618;47.056;15.472;2024-03-22T05:35:40;30.30;;;28.40;;
3211;SDS011;1618;47.056;15.472;2024-03-22T05:38:08;29.60;;;27.70;;
3211;SDS011;1618;47.056;15.472;2024-03-22T05:40:36;29.80;;;27.90;;
3211;SDS011;1618;47.056;15.472;2024-03-22T05:43:04;29.23;;;27.33;;
3211;SDS011;1618;47.056;15.472;2024-03-22T05:45:32;29.10;;;27.30;;
3211;SDS011;1618;47.056;15.472;2024-03-22T05:48:00;29.70;;;27.90;;
3211;SDS011;1618;47.056;15.472;2024-03-22T05:50:28;29.00;;;27.20;;
3211;SDS011;1618;47.056;15.472;2024-03-22T05:52:57;29.10;;;27.20;;
3211;SDS011;1618;47.056;15.472;2024-03-22T05:55:24;28.73;;;26.83;;
3211;SDS011;1618;47.056;15.472;2024-03-22T05:57:53;29.53;;;27.63;;
3211;SDS011;1618;47.056;15.472;2024-03-22T06:00:21;29.00;;;27.20;;
3211;SDS011;1618;47.056;15.472;2024-03-22T06:02:49;29.10;;;27.30;;
3211;SDS011;1618;47.056;15.472;2024-03-22T06:05:17;29.57;;;27.77;;
3211;SDS011;1618;47.056;15.472;2024-03-22T06:07:44;29.67;;;27.87;;
3211;SDS011;1618;47.056;15.472;2024-03-22T06:10:14;28.73;;;27.03;;
3211;SDS011;1618;47.056;15.472;2024-03-22T06:12:41;28.30;;;26.60;;
3211;SDS011;1618;47.056;15.472;2024-03-22T06:15:10;28.57;;;26.77;;
3211;SDS011;1618;47.056;15.472;2024-03-22T06:17:39;28.57;;;26.77;;
3211;SDS011;1618;47.056;15.472;2024-03-22T06:20:08;28.90;;;27.10;;
3211;SDS011;1618;47.056;15.472;2024-03-22T06:22:37;29.17;;;27.47;;
3211;SDS011;1618;47.056;15.472;2024-03-22T06:25:04;29.10;;;27.30;;
3211;SDS011;1618;47.056;15.472;2024-03-22T06:27:32;28.50;;;26.80;;
3211;SDS011;1618;47.056;15.472;2024-03-22T06:29:59;29.43;;;27.63;;
3211;SDS011;1618;47.056;15.472;2024-03-22T06:32:26;29.13;;;27.33;;
3211;SDS011;1618;47.056;15.472;2024-03-22T06:34:54;29.13;;;27.33;;
3211;SDS011;1618;47.056;15.472;2024-03-22T06:37:20;28.90;;;27.10;;
3211;SDS011;1618;47.056;15.472;2024-03-22T06:39:49;28.60;;;26.80;;
3211;SDS011;1618;47.056;15.472;2024-03-22T06:42:17;28.30;;;26.50;;
3211;SDS011;1618;47.056;15.472;2024-03-22T06:44:46;28.30;;;26.60;;
3211;SDS011;1618;47.056;15.472;2024-03-22T06:47:13;28.37;;;26.67;;
3211;SDS011;1618;47.056;15.472;2024-03-22T06:49:42;28.30;;;26.60;;
3211;SDS011;1618;47.056;15.472;2024-03-22T06:52:09;28.77;;;26.97;;
3211;SDS011;1618;47.056;15.472;2024-03-22T06:54:37;28.77;;;26.97;;
3211;SDS011;1618;47.056;15.472;2024-03-22T06:57:04;28.83;;;27.03;;
3211;SDS011;1618;47.056;15.472;2024-03-22T06:59:31;29.23;;;27.23;;
3211;SDS011;1618;47.056;15.472;2024-03-22T07:02:00;29.37;;;27.37;;
3211;SDS011;1618;47.056;15.472;2024-03-22T07:04:33;29.50;;;27.40;;
3211;SDS011;1618;47.056;15.472;2024-03-22T07:07:00;30.30;;;28.20;;
3211;SDS011;1618;47.056;15.472;2024-03-22T07:09:27;30.17;;;28.07;;
3211;SDS011;1618;47.056;15.472;2024-03-22T07:11:56;30.50;;;28.40;;
3211;SDS011;1618;47.056;15.472;2024-03-22T07:14:24;30.37;;;28.27;;
3211;SDS011;1618;47.056;15.472;2024-03-22T07:16:51;30.17;;;28.07;;
3211;SDS011;1618;47.056;15.472;2024-03-22T07:19:23;30.10;;;28.00;;
3211;SDS011;1618;47.056;15.472;2024-03-22T07:21:50;29.90;;;27.80;;
3211;SDS011;1618;47.056;15.472;2024-03-22T07:24:18;30.63;;;28.43;;
3211;SDS011;1618;47.056;15.472;2024-03-22T07:26:45;30.17;;;28.07;;
3211;SDS011;1618;47.056;15.472;2024-03-22T07:29:13;30.60;;;28.47;;
3211;SDS011;1618;47.056;15.472;2024-03-22T07:31:40;29.77;;;27.67;;
3211;SDS011;1618;47.056;15.472;2024-03-22T07:34:08;29.40;;;27.30;;
3211;SDS011;1618;47.056;15.472;2024-03-22T07:36:39;28.70;;;26.60;;
3211;SDS011;1618;47.056;15.472;2024-03-22T07:39:08;29.33;;;27.23;;
3211;SDS011;1618;47.056;15.472;2024-03-22T07:41:35;28.90;;;26.80;;
3211;SDS011;1618;47.056;15.472;2024-03-22T07:44:03;29.00;;;26.90;;
3211;SDS011;1618;47.056;15.472;2024-03-22T07:46:31;28.60;;;26.50;;
3211;SDS011;1618;47.056;15.472;2024-03-22T07:48:59;28.80;;;26.70;;
3211;SDS011;1618;47.056;15.472;2024-03-22T07:51:30;28.70;;;26.50;;
3211;SDS011;1618;47.056;15.472;2024-03-22T07:54:00;29.13;;;26.93;;
3211;SDS011;1618;47.056;15.472;2024-03-22T07:56:27;28.80;;;26.70;;
3211;SDS011;1618;47.056;15.472;2024-03-22T07:58:56;29.00;;;26.90;;
3211;SDS011;1618;47.056;15.472;2024-03-22T08:01:23;30.63;;;28.33;;
3211;SDS011;1618;47.056;15.472;2024-03-22T08:03:53;30.60;;;28.30;;
3211;SDS011;1618;47.056;15.472;2024-03-22T08:06:20;30.60;;;28.30;;
3211;SDS011;1618;47.056;15.472;2024-03-22T08:08:49;30.30;;;28.00;;
3211;SDS011;1618;47.056;15.472;2024-03-22T08:11:17;29.87;;;27.57;;
3211;SDS011;1618;47.056;15.472;2024-03-22T08:13:45;29.33;;;27.03;;
3211;SDS011;1618;47.056;15.472;2024-03-22T08:16:18;29.17;;;26.87;;
3211;SDS011;1618;47.056;15.472;2024-03-22T08:18:46;29.40;;;27.10;;
3211;SDS011;1618;47.056;15.472;2024-03-22T08:21:14;29.90;;;27.60;;
3211;SDS011;1618;47.056;15.472;2024-03-22T08:23:43;31.07;;;28.67;;
3211;SDS011;1618;47.056;15.472;2024-03-22T08:26:11;30.27;;;27.97;;
3211;SDS011;1618;47.056;15.472;2024-03-22T08:28:41;31.40;;;29.10;;
3211;SDS011;1618;47.056;15.472;2024-03-22T08:31:07;29.80;;;27.50;;
3211;SDS011;1618;47.056;15.472;2024-03-22T08:33:36;29.70;;;27.40;;
3211;SDS011;1618;47.056;15.472;2024-03-22T08:36:02;29.53;;;27.23;;
3211;SDS011;1618;47.056;15.472;2024-03-22T08:38:32;29.60;;;27.40;;
3211;SDS011;1618;47.056;15.472;2024-03-22T08:40:59;28.87;;;26.60;;
3211;SDS011;1618;47.056;15.472;2024-03-22T08:43:28;29.80;;;27.50;;
3211;SDS011;1618;47.056;15.472;2024-03-22T08:45:56;28.67;;;26.47;;
3211;SDS011;1618;47.056;15.472;2024-03-22T08:48:24;29.80;;;27.50;;
3211;SDS011;1618;47.056;15.472;2024-03-22T08:50:52;29.90;;;27.50;;
3211;SDS011;1618;47.056;15.472;2024-03-22T08:53:20;30.47;;;28.07;;
3211;SDS011;1618;47.056;15.472;2024-03-22T08:55:47;30.30;;;27.80;;
3211;SDS011;1618;47.056;15.472;2024-03-22T08:58:14;30.50;;;28.00;;
3211;SDS011;1618;47.056;15.472;2024-03-22T09:00:43;30.10;;;27.60;;
3211;SDS011;1618;47.056;15.472;2024-03-22T09:03:12;29.67;;;27.27;;
3211;SDS011;1618;47.056;15.472;2024-03-22T09:05:40;30.33;;;27.93;;
3211;SDS011;1618;47.056;15.472;2024-03-22T09:08:08;29.90;;;27.40;;
3211;SDS011;1618;47.056;15.472;2024-03-22T09:10:35;30.23;;;27.73;;
3211;SDS011;1618;47.056;15.472;2024-03-22T09:13:03;29.73;;;27.33;;
3211;SDS011;1618;47.056;15.472;2024-03-22T09:15:30;27.30;;;25.10;;
3211;SDS011;1618;47.056;15.472;2024-03-22T09:17:58;29.60;;;27.20;;
3211;SDS011;1618;47.056;15.472;2024-03-22T09:20:27;29.30;;;26.90;;
3211;SDS011;1618;47.056;15.472;2024-03-22T09:22:56;29.20;;;26.80;;
3211;SDS011;1618;47.056;15.472;2024-03-22T09:25:24;31.03;;;28.53;;
3211;SDS011;1618;47.056;15.472;2024-03-22T09:27:53;31.57;;;28.97;;
3211;SDS011;1618;47.056;15.472;2024-03-22T09:30:20;31.30;;;28.80;;
3211;SDS011;1618;47.056;15.472;2024-03-22T09:32:49;32.33;;;29.73;;
3211;SDS011;1618;47.056;15.472;2024-03-22T09:35:16;32.10;;;29.50;;
3211;SDS011;1618;47.056;15.472;2024-03-22T09:37:46;32.73;;;30.13;;
3211;SDS011;1618;47.056;15.472;2024-03-22T09:40:12;33.20;;;30.60;;
3211;SDS011;1618;47.056;15.472;2024-03-22T09:42:41;32.00;;;29.50;;
3211;SDS011;1618;47.056;15.472;2024-03-22T09:45:08;32.20;;;29.70;;
3211;SDS011;1618;47.056;15.472;2024-03-22T09:47:37;29.73;;;27.33;;
3211;SDS011;1618;47.056;15.472;2024-03-22T09:50:06;29.67;;;27.17;;
3211;SDS011;1618;47.056;15.472;2024-03-22T09:52:38;30.20;;;27.50;;
3211;SDS011;1618;47.056;15.472;2024-03-22T09:55:12;29.33;;;26.73;;
3211;SDS011;1618;47.056;15.472;2024-03-22T09:57:40;29.00;;;26.40;;
3211;SDS011;1618;47.056;15.472;2024-03-22T10:00:09;29.30;;;26.60;;
3211;SDS011;1618;47.056;15.472;2024-03-22T10:02:40;29.50;;;26.80;;
3211;SDS011;1618;47.056;15.472;2024-03-22T10:05:07;29.80;;;27.10;;
3211;SDS011;1618;47.056;15.472;2024-03-22T10:07:34;30.10;;;27.40;;
3211;SDS011;1618;47.056;15.472;2024-03-22T10:10:03;29.93;;;27.23;;
3211;SDS011;1618;47.056;15.472;2024-03-22T10:12:31;29.73;;;27.03;;
3211;SDS011;1618;47.056;15.472;2024-03-22T10:14:58;30.37;;;27.57;;
3211;SDS011;1618;47.056;15.472;2024-03-22T10:17:26;30.53;;;27.73;;
3211;SDS011;1618;47.056;15.472;2024-03-22T10:19:53;30.00;;;27.23;;
3211;SDS011;1618;47.056;15.472;2024-03-22T10:22:20;31.33;;;28.33;;
3211;SDS011;1618;47.056;15.472;2024-03-22T10:24:48;32.13;;;29.13;;
3211;SDS011;1618;47.056;15.472;2024-03-22T10:27:15;34.90;;;32.00;;
3211;SDS011;1618;47.056;15.472;2024-03-22T10:29:45;33.87;;;30.97;;
3211;SDS011;1618;47.056;15.472;2024-03-22T10:32:11;35.30;;;32.40;;
3211;SDS011;1618;47.056;15.472;2024-03-22T10:34:40;34.37;;;31.47;;
3211;SDS011;1618;47.056;15.472;2024-03-22T10:37:07;34.70;;;31.70;;
3211;SDS011;1618;47.056;15.472;2024-03-22T10:39:35;33.30;;;30.40;;
3211;SDS011;1618;47.056;15.472;2024-03-22T10:42:03;34.33;;;31.43;;
3211;SDS011;1618;47.056;15.472;2024-03-22T10:44:32;33.57;;;30.77;;
3211;SDS011;1618;47.056;15.472;2024-03-22T10:47:01;33.00;;;30.30;;
3211;SDS011;1618;47.056;15.472;2024-03-22T10:49:29;35.17;;;32.27;;
3211;SDS011;1618;47.056;15.472;2024-03-22T10:51:59;34.53;;;31.83;;
3211;SDS011;1618;47.056;15.472;2024-03-22T10:54:40;35.70;;;32.87;;
3211;SDS011;1618;47.056;15.472;2024-03-22T10:57:15;33.30;;;30.60;;
3211;SDS011;1618;47.056;15.472;2024-03-22T10:59:43;33.60;;;30.80;;
3211;SDS011;1618;47.056;15.472;2024-03-22T11:02:16;34.30;;;31.47;;
3211;SDS011;1618;47.056;15.472;2024-03-22T11:04:53;34.37;;;31.57;;
3211;SDS011;1618;47.056;15.472;2024-03-22T11:07:28;35.00;;;32.10;;
3211;SDS011;1618;47.056;15.472;2024-03-22T11:09:56;35.87;;;32.97;;
3211;SDS011;1618;47.056;15.472;2024-03-22T11:12:23;36.20;;;33.20;;
3211;SDS011;1618;47.056;15.472;2024-03-22T11:14:53;36.20;;;33.10;;
3211;SDS011;1618;47.056;15.472;2024-03-22T11:17:20;36.47;;;33.47;;
3211;SDS011;1618;47.056;15.472;2024-03-22T11:19:50;34.60;;;31.60;;
3211;SDS011;1618;47.056;15.472;2024-03-22T11:22:17;34.67;;;31.77;;
3211;SDS011;1618;47.056;15.472;2024-03-22T11:24:45;33.47;;;30.57;;
3211;SDS011;1618;47.056;15.472;2024-03-22T11:27:12;35.47;;;32.47;;
3211;SDS011;1618;47.056;15.472;2024-03-22T11:29:40;35.70;;;33.00;;
3211;SDS011;1618;47.056;15.472;2024-03-22T11:32:07;35.70;;;32.80;;
3211;SDS011;1618;47.056;15.472;2024-03-22T11:34:36;33.40;;;30.47;;
3211;SDS011;1618;47.056;15.472;2024-03-22T11:37:03;32.23;;;29.33;;
3211;SDS011;1618;47.056;15.472;2024-03-22T11:39:34;32.70;;;29.70;;
3211;SDS011;1618;47.056;15.472;2024-03-22T11:42:01;32.40;;;29.50;;
3211;SDS011;1618;47.056;15.472;2024-03-22T11:44:29;32.77;;;29.77;;
3211;SDS011;1618;47.056;15.472;2024-03-22T11:46:56;32.30;;;29.23;;
3211;SDS011;1618;47.056;15.472;2024-03-22T11:49:24;33.40;;;30.30;;
3211;SDS011;1618;47.056;15.472;2024-03-22T11:51:52;32.20;;;29.10;;
3211;SDS011;1618;47.056;15.472;2024-03-22T11:54:21;32.73;;;29.73;;
3211;SDS011;1618;47.056;15.472;2024-03-22T11:56:48;33.30;;;30.20;;
3211;SDS011;1618;47.056;15.472;2024-03-22T11:59:19;31.70;;;28.70;;
3211;SDS011;1618;47.056;15.472;2024-03-22T12:01:47;34.40;;;31.50;;
3211;SDS011;1618;47.056;15.472;2024-03-22T12:04:14;33.03;;;29.93;;
3211;SDS011;1618;47.056;15.472;2024-03-22T12:06:43;34.20;;;31.00;;
3211;SDS011;1618;47.056;15.472;2024-03-22T12:09:11;33.10;;;30.00;;
3211;SDS011;1618;47.056;15.472;2024-03-22T12:11:40;32.50;;;29.50;;
3211;SDS011;1618;47.056;15.472;2024-03-22T12:14:07;32.20;;;29.20;;
3211;SDS011;1618;47.056;15.472;2024-03-22T12:16:35;32.83;;;29.73;;
3211;SDS011;1618;47.056;15.472;2024-03-22T12:19:02;31.97;;;28.87;;
3211;SDS011;1618;47.056;15.472;2024-03-22T12:21:30;33.50;;;30.40;;
3211;SDS011;1618;47.056;15.472;2024-03-22T12:23:58;32.60;;;29.60;;
3211;SDS011;1618;47.056;15.472;2024-03-22T12:26:28;32.80;;;29.80;;
3211;SDS011;1618;47.056;15.472;2024-03-22T12:28:57;35.20;;;32.20;;
3211;SDS011;1618;47.056;15.472;2024-03-22T12:31:25;33.63;;;30.53;;
3211;SDS011;1618;47.056;15.472;2024-03-22T12:33:52;35.90;;;33.00;;
3211;SDS011;1618;47.056;15.472;2024-03-22T12:36:21;33.73;;;30.63;;
3211;SDS011;1618;47.056;15.472;2024-03-22T12:38:49;34.10;;;31.10;;
3211;SDS011;1618;47.056;15.472;2024-03-22T12:41:16;34.10;;;31.10;;
3211;SDS011;1618;47.056;15.472;2024-03-22T12:43:48;34.53;;;31.53;;
3211;SDS011;1618;47.056;15.472;2024-03-22T12:46:15;33.43;;;30.43;;
3211;SDS011;1618;47.056;15.472;2024-03-22T12:48:42;34.03;;;31.03;;
3211;SDS011;1618;47.056;15.472;2024-03-22T12:51:10;33.97;;;30.97;;
3211;SDS011;1618;47.056;15.472;2024-03-22T12:53:37;34.50;;;31.60;;
3211;SDS011;1618;47.056;15.472;2024-03-22T12:56:05;33.80;;;30.80;;
3211;SDS011;1618;47.056;15.472;2024-03-22T12:58:32;34.17;;;31.17;;
3211;SDS011;1618;47.056;15.472;2024-03-22T13:01:02;34.47;;;31.47;;
3211;SDS011;1618;47.056;15.472;2024-03-22T13:03:29;35.43;;;32.33;;
3211;SDS011;1618;47.056;15.472;2024-03-22T13:05:58;35.20;;;32.30;;
3211;SDS011;1618;47.056;15.472;2024-03-22T13:08:25;34.63;;;31.53;;
3211;SDS011;1618;47.056;15.472;2024-03-22T13:10:54;34.43;;;31.43;;
3211;SDS011;1618;47.056;15.472;2024-03-22T13:13:21;36.00;;;33.10;;
3211;SDS011;1618;47.056;15.472;2024-03-22T13:15:48;36.07;;;33.17;;
3211;SDS011;1618;47.056;15.472;2024-03-22T13:18:18;35.83;;;32.93;;
3211;SDS011;1618;47.056;15.472;2024-03-22T13:20:46;35.93;;;33.03;;
3211;SDS011;1618;47.056;15.472;2024-03-22T13:23:13;36.00;;;33.00;;
3211;SDS011;1618;47.056;15.472;2024-03-22T13:25:44;35.80;;;32.80;;
3211;SDS011;1618;47.056;15.472;2024-03-22T13:28:11;36.10;;;33.20;;
3211;SDS011;1618;47.056;15.472;2024-03-22T13:30:38;35.27;;;32.37;;
3211;SDS011;1618;47.056;15.472;2024-03-22T13:33:05;36.23;;;33.33;;
3211;SDS011;1618;47.056;15.472;2024-03-22T13:35:36;36.87;;;33.97;;
3211;SDS011;1618;47.056;15.472;2024-03-22T13:38:04;35.53;;;32.63;;
3211;SDS011;1618;47.056;15.472;2024-03-22T13:40:34;33.73;;;30.73;;
3211;SDS011;1618;47.056;15.472;2024-03-22T13:43:01;34.53;;;31.53;;
3211;SDS011;1618;47.056;15.472;2024-03-22T13:45:29;34.90;;;31.93;;
3211;SDS011;1618;47.056;15.472;2024-03-22T13:47:55;33.60;;;30.70;;
3211;SDS011;1618;47.056;15.472;2024-03-22T13:50:24;34.90;;;32.00;;
3211;SDS011;1618;47.056;15.472;2024-03-22T13:52:52;33.80;;;30.90;;
3211;SDS011;1618;47.056;15.472;2024-03-22T13:55:20;35.43;;;32.37;;
3211;SDS011;1618;47.056;15.472;2024-03-22T13:57:47;34.90;;;31.90;;
3211;SDS011;1618;47.056;15.472;2024-03-22T14:00:15;35.63;;;32.53;;
3211;SDS011;1618;47.056;15.472;2024-03-22T14:02:43;34.77;;;31.87;;
3211;SDS011;1618;47.056;15.472;2024-03-22T14:05:17;36.47;;;33.57;;
3211;SDS011;1618;47.056;15.472;2024-03-22T14:07:44;35.40;;;32.50;;
3211;SDS011;1618;47.056;15.472;2024-03-22T14:10:13;35.97;;;32.97;;
3211;SDS011;1618;47.056;15.472;2024-03-22T14:12:43;37.03;;;34.03;;
3211;SDS011;1618;47.056;15.472;2024-03-22T14:15:12;35.40;;;32.40;;
3211;SDS011;1618;47.056;15.472;2024-03-22T14:17:38;34.47;;;31.47;;
3211;SDS011;1618;47.056;15.472;2024-03-22T14:20:06;35.00;;;32.00;;
3211;SDS011;1618;47.056;15.472;2024-03-22T14:22:37;35.67;;;32.67;;
3211;SDS011;1618;47.056;15.472;2024-03-22T14:25:06;35.70;;;32.70;;
3211;SDS011;1618;47.056;15.472;2024-03-22T14:27:35;35.33;;;32.33;;
3211;SDS011;1618;47.056;15.472;2024-03-22T14:30:03;36.17;;;33.27;;
3211;SDS011;1618;47.056;15.472;2024-03-22T14:32:33;33.47;;;30.37;;
3211;SDS011;1618;47.056;15.472;2024-03-22T14:35:05;35.00;;;32.10;;
3211;SDS011;1618;47.056;15.472;2024-03-22T14:37:31;35.80;;;32.80;;
3211;SDS011;1618;47.056;15.472;2024-03-22T14:40:00;36.00;;;33.00;;